Sangudo, Canada
Current Conditions -  °F | °C
As of 6:00 PM on Thursday 27 Nov 2014 (Local Time) from CYZU Reporting Station
Moderate Snow Moderate Snow  
Wind Chill: -17°   Ceiling: 300
Heat Index: -2°   Visibility: 0.5mi
Dew Point: -6°   Wind: 8mph
Humidity: 85%   Direction: 90°E
Pressure: 29.98"   Gusts: NA
Location:  53.88°N, 114.9°W
Report Text: CYZU 280100Z 09007KT 1/2SM SN VV003 M19/M21 A2998 RMK SN8 /S02/ SLP218
Loading
Personal Weather Stations






























Interactive Weather Map New forecast layout! Learn more

10-Day Weather Forecast

Advertisements
Track Severe Weather on mobile